sensor_id;sensor_type;location;lat;lon;timestamp;pressure;altitude;pressure_sealevel;temperature;humidity
8627;BME280;4351;51.422;6.794;2023-05-25T00:01:16;102574.41;;;10.46;100.00
8627;BME280;4351;51.422;6.794;2023-05-25T00:03:44;102578.00;;;10.49;100.00
8627;BME280;4351;51.422;6.794;2023-05-25T00:06:12;102589.78;;;10.44;100.00
8627;BME280;4351;51.422;6.794;2023-05-25T00:08:40;102590.28;;;10.27;100.00
8627;BME280;4351;51.422;6.794;2023-05-25T00:11:10;102585.97;;;10.21;100.00
8627;BME280;4351;51.422;6.794;2023-05-25T00:13:38;102594.91;;;10.23;100.00
8627;BME280;4351;51.422;6.794;2023-05-25T00:16:06;102592.22;;;10.23;100.00
8627;BME280;4351;51.422;6.794;2023-05-25T00:18:34;102596.59;;;10.28;100.00
8627;BME280;4351;51.422;6.794;2023-05-25T00:21:04;102601.13;;;10.26;100.00
8627;BME280;4351;51.422;6.794;2023-05-25T00:23:32;102604.91;;;10.20;100.00
8627;BME280;4351;51.422;6.794;2023-05-25T00:26:01;102615.84;;;10.14;100.00
8627;BME280;4351;51.422;6.794;2023-05-25T00:28:31;102607.50;;;10.23;100.00
8627;BME280;4351;51.422;6.794;2023-05-25T00:30:59;102613.13;;;10.15;100.00
8627;BME280;4351;51.422;6.794;2023-05-25T00:33:27;102621.09;;;10.20;100.00
8627;BME280;4351;51.422;6.794;2023-05-25T00:35:55;102625.50;;;10.22;100.00
8627;BME280;4351;51.422;6.794;2023-05-25T00:38:24;102635.38;;;10.23;100.00
8627;BME280;4351;51.422;6.794;2023-05-25T00:40:54;102640.72;;;10.25;100.00
8627;BME280;4351;51.422;6.794;2023-05-25T00:43:22;102651.63;;;10.20;100.00
8627;BME280;4351;51.422;6.794;2023-05-25T00:45:52;102661.41;;;10.24;100.00
8627;BME280;4351;51.422;6.794;2023-05-25T00:48:21;102666.91;;;10.21;100.00
8627;BME280;4351;51.422;6.794;2023-05-25T00:50:52;102669.50;;;10.24;100.00
8627;BME280;4351;51.422;6.794;2023-05-25T00:53:24;102676.00;;;10.17;100.00
8627;BME280;4351;51.422;6.794;2023-05-25T00:56:01;102677.75;;;10.18;100.00
8627;BME280;4351;51.422;6.794;2023-05-25T00:58:32;102690.22;;;10.22;100.00
8627;BME280;4351;51.422;6.794;2023-05-25T01:01:02;102701.19;;;10.16;100.00
8627;BME280;4351;51.422;6.794;2023-05-25T01:03:34;102712.81;;;10.20;100.00
8627;BME280;4351;51.422;6.794;2023-05-25T01:06:10;102716.53;;;10.14;100.00
8627;BME280;4351;51.422;6.794;2023-05-25T01:08:41;102715.69;;;10.12;100.00
8627;BME280;4351;51.422;6.794;2023-05-25T01:11:10;102719.22;;;10.14;100.00
8627;BME280;4351;51.422;6.794;2023-05-25T01:13:39;102731.81;;;10.15;100.00
8627;BME280;4351;51.422;6.794;2023-05-25T01:16:09;102746.22;;;10.14;100.00
8627;BME280;4351;51.422;6.794;2023-05-25T01:18:41;102755.25;;;10.13;100.00
8627;BME280;4351;51.422;6.794;2023-05-25T01:21:14;102765.94;;;10.16;100.00
8627;BME280;4351;51.422;6.794;2023-05-25T01:23:47;102772.16;;;10.18;100.00
8627;BME280;4351;51.422;6.794;2023-05-25T01:26:18;102778.38;;;10.22;100.00
8627;BME280;4351;51.422;6.794;2023-05-25T01:28:50;102776.72;;;10.18;100.00
8627;BME280;4351;51.422;6.794;2023-05-25T01:31:21;102764.91;;;10.22;100.00
8627;BME280;4351;51.422;6.794;2023-05-25T01:33:50;102743.28;;;10.23;100.00
8627;BME280;4351;51.422;6.794;2023-05-25T01:36:20;102728.16;;;10.16;100.00
8627;BME280;4351;51.422;6.794;2023-05-25T01:38:48;102716.72;;;10.08;100.00
8627;BME280;4351;51.422;6.794;2023-05-25T01:41:17;102708.00;;;9.96;100.00
8627;BME280;4351;51.422;6.794;2023-05-25T01:43:45;102696.38;;;9.96;100.00
8627;BME280;4351;51.422;6.794;2023-05-25T01:46:17;102696.16;;;10.04;100.00
8627;BME280;4351;51.422;6.794;2023-05-25T01:48:55;102675.53;;;10.01;100.00
8627;BME280;4351;51.422;6.794;2023-05-25T01:51:36;102675.88;;;9.88;100.00
8627;BME280;4351;51.422;6.794;2023-05-25T01:54:10;102665.88;;;9.92;100.00
8627;BME280;4351;51.422;6.794;2023-05-25T01:56:39;102675.00;;;9.88;100.00
8627;BME280;4351;51.422;6.794;2023-05-25T01:59:13;102673.22;;;9.87;100.00
8627;BME280;4351;51.422;6.794;2023-05-25T02:01:42;102665.16;;;9.85;100.00
8627;BME280;4351;51.422;6.794;2023-05-25T02:04:11;102666.84;;;9.91;100.00
8627;BME280;4351;51.422;6.794;2023-05-25T02:06:40;102665.16;;;9.85;100.00
8627;BME280;4351;51.422;6.794;2023-05-25T02:09:08;102662.69;;;9.77;100.00
8627;BME280;4351;51.422;6.794;2023-05-25T02:11:36;102653.59;;;9.82;100.00
8627;BME280;4351;51.422;6.794;2023-05-25T02:14:04;102659.03;;;9.78;100.00
8627;BME280;4351;51.422;6.794;2023-05-25T02:16:32;102657.19;;;9.81;100.00
8627;BME280;4351;51.422;6.794;2023-05-25T02:19:01;102653.75;;;9.75;100.00
8627;BME280;4351;51.422;6.794;2023-05-25T02:21:29;102654.88;;;9.66;100.00
8627;BME280;4351;51.422;6.794;2023-05-25T02:23:59;102650.44;;;9.64;100.00
8627;BME280;4351;51.422;6.794;2023-05-25T02:26:27;102643.59;;;9.52;100.00
8627;BME280;4351;51.422;6.794;2023-05-25T02:28:56;102639.91;;;9.54;100.00
8627;BME280;4351;51.422;6.794;2023-05-25T02:31:23;102634.63;;;9.51;100.00
8627;BME280;4351;51.422;6.794;2023-05-25T02:33:54;102632.81;;;9.50;100.00
8627;BME280;4351;51.422;6.794;2023-05-25T02:36:24;102616.75;;;9.47;100.00
8627;BME280;4351;51.422;6.794;2023-05-25T02:38:53;102606.56;;;9.59;100.00
8627;BME280;4351;51.422;6.794;2023-05-25T02:41:22;102594.09;;;9.54;100.00
8627;BME280;4351;51.422;6.794;2023-05-25T02:43:52;102581.63;;;9.52;100.00
8627;BME280;4351;51.422;6.794;2023-05-25T02:46:19;102566.19;;;9.57;100.00
8627;BME280;4351;51.422;6.794;2023-05-25T02:48:49;102548.22;;;9.58;100.00
8627;BME280;4351;51.422;6.794;2023-05-25T02:51:17;102524.94;;;9.55;100.00
8627;BME280;4351;51.422;6.794;2023-05-25T02:53:45;102515.13;;;9.52;100.00
8627;BME280;4351;51.422;6.794;2023-05-25T02:56:13;102507.38;;;9.40;100.00
8627;BME280;4351;51.422;6.794;2023-05-25T02:58:43;102501.81;;;9.46;100.00
8627;BME280;4351;51.422;6.794;2023-05-25T03:01:13;102499.19;;;9.45;100.00
8627;BME280;4351;51.422;6.794;2023-05-25T03:03:49;102510.19;;;9.37;100.00
8627;BME280;4351;51.422;6.794;2023-05-25T03:06:19;102501.94;;;9.41;100.00
8627;BME280;4351;51.422;6.794;2023-05-25T03:08:51;102500.19;;;9.40;100.00
8627;BME280;4351;51.422;6.794;2023-05-25T03:11:20;102493.13;;;9.36;100.00
8627;BME280;4351;51.422;6.794;2023-05-25T03:13:50;102495.66;;;9.42;100.00
8627;BME280;4351;51.422;6.794;2023-05-25T03:16:20;102504.63;;;9.41;100.00
8627;BME280;4351;51.422;6.794;2023-05-25T03:18:49;102509.00;;;9.46;100.00
8627;BME280;4351;51.422;6.794;2023-05-25T03:21:18;102513.66;;;9.40;100.00
8627;BME280;4351;51.422;6.794;2023-05-25T03:23:48;102518.94;;;9.43;100.00
8627;BME280;4351;51.422;6.794;2023-05-25T03:26:16;102516.31;;;9.42;100.00
8627;BME280;4351;51.422;6.794;2023-05-25T03:28:47;102525.88;;;9.52;100.00
8627;BME280;4351;51.422;6.794;2023-05-25T03:31:16;102519.59;;;9.53;100.00
8627;BME280;4351;51.422;6.794;2023-05-25T03:33:44;102521.50;;;9.48;100.00
8627;BME280;4351;51.422;6.794;2023-05-25T03:36:13;102526.25;;;9.40;100.00
8627;BME280;4351;51.422;6.794;2023-05-25T03:38:43;102526.88;;;9.50;100.00
8627;BME280;4351;51.422;6.794;2023-05-25T03:41:11;102523.19;;;9.52;100.00
8627;BME280;4351;51.422;6.794;2023-05-25T03:43:39;102525.78;;;9.57;100.00
8627;BME280;4351;51.422;6.794;2023-05-25T03:46:08;102524.00;;;9.56;100.00
8627;BME280;4351;51.422;6.794;2023-05-25T03:48:38;102522.94;;;9.62;100.00
8627;BME280;4351;51.422;6.794;2023-05-25T03:51:07;102526.59;;;9.61;100.00
8627;BME280;4351;51.422;6.794;2023-05-25T03:53:35;102522.81;;;9.66;100.00
8627;BME280;4351;51.422;6.794;2023-05-25T03:56:03;102524.97;;;9.53;100.00
8627;BME280;4351;51.422;6.794;2023-05-25T03:58:31;102528.41;;;9.59;100.00
8627;BME280;4351;51.422;6.794;2023-05-25T04:00:59;102532.13;;;9.54;100.00
8627;BME280;4351;51.422;6.794;2023-05-25T04:03:30;102531.25;;;9.54;100.00
8627;BME280;4351;51.422;6.794;2023-05-25T04:06:01;102533.00;;;9.55;100.00
8627;BME280;4351;51.422;6.794;2023-05-25T04:08:28;102538.34;;;9.57;100.00
8627;BME280;4351;51.422;6.794;2023-05-25T04:10:56;102530.38;;;9.53;100.00
8627;BME280;4351;51.422;6.794;2023-05-25T04:13:27;102532.97;;;9.57;100.00
8627;BME280;4351;51.422;6.794;2023-05-25T04:15:54;102541.88;;;9.60;100.00
8627;BME280;4351;51.422;6.794;2023-05-25T04:18:27;102542.81;;;9.58;100.00
8627;BME280;4351;51.422;6.794;2023-05-25T04:20:55;102536.50;;;9.59;100.00
8627;BME280;4351;51.422;6.794;2023-05-25T04:23:25;102543.44;;;9.68;100.00
8627;BME280;4351;51.422;6.794;2023-05-25T04:25:53;102541.56;;;9.71;100.00
8627;BME280;4351;51.422;6.794;2023-05-25T04:28:21;102546.97;;;9.70;100.00
8627;BME280;4351;51.422;6.794;2023-05-25T04:31:12;102537.00;;;9.73;100.00
8627;BME280;4351;51.422;6.794;2023-05-25T04:34:00;102526.06;;;9.80;100.00
8627;BME280;4351;51.422;6.794;2023-05-25T04:36:31;102526.31;;;9.70;100.00
8627;BME280;4351;51.422;6.794;2023-05-25T04:39:04;102528.97;;;9.72;100.00
8627;BME280;4351;51.422;6.794;2023-05-25T04:41:35;102527.91;;;9.77;100.00
8627;BME280;4351;51.422;6.794;2023-05-25T04:44:08;102519.72;;;9.81;100.00
8627;BME280;4351;51.422;6.794;2023-05-25T04:46:40;102523.13;;;9.87;100.00
8627;BME280;4351;51.422;6.794;2023-05-25T04:49:13;102525.78;;;9.89;100.00
8627;BME280;4351;51.422;6.794;2023-05-25T04:51:42;102528.31;;;9.95;100.00
8627;BME280;4351;51.422;6.794;2023-05-25T04:54:11;102528.94;;;10.04;100.00
8627;BME280;4351;51.422;6.794;2023-05-25T04:56:40;102543.19;;;10.09;100.00
8627;BME280;4351;51.422;6.794;2023-05-25T04:59:09;102544.06;;;10.09;100.00
8627;BME280;4351;51.422;6.794;2023-05-25T05:01:37;102550.25;;;10.13;100.00
8627;BME280;4351;51.422;6.794;2023-05-25T05:04:33;102562.72;;;10.17;100.00
8627;BME280;4351;51.422;6.794;2023-05-25T05:10:20;102576.84;;;10.26;100.00
8627;BME280;4351;51.422;6.794;2023-05-25T05:12:53;102578.53;;;10.30;100.00
8627;BME280;4351;51.422;6.794;2023-05-25T05:15:21;102588.25;;;10.35;100.00
8627;BME280;4351;51.422;6.794;2023-05-25T05:17:49;102595.16;;;10.44;100.00
8627;BME280;4351;51.422;6.794;2023-05-25T05:20:19;102598.47;;;10.56;100.00
8627;BME280;4351;51.422;6.794;2023-05-25T05:33:14;102621.16;;;10.50;100.00
8627;BME280;4351;51.422;6.794;2023-05-25T05:35:44;102644.28;;;10.59;100.00
8627;BME280;4351;51.422;6.794;2023-05-25T05:38:54;102648.78;;;10.58;100.00
8627;BME280;4351;51.422;6.794;2023-05-25T05:41:59;102663.81;;;10.67;100.00
8627;BME280;4351;51.422;6.794;2023-05-25T05:44:27;102659.38;;;10.65;100.00
8627;BME280;4351;51.422;6.794;2023-05-25T05:47:21;102667.50;;;10.94;100.00
8627;BME280;4351;51.422;6.794;2023-05-25T05:54:11;102684.34;;;11.02;100.00
8627;BME280;4351;51.422;6.794;2023-05-25T05:56:38;102690.66;;;11.31;100.00
8627;BME280;4351;51.422;6.794;2023-05-25T05:59:06;102678.72;;;11.38;100.00
8627;BME280;4351;51.422;6.794;2023-05-25T06:01:34;102685.97;;;11.36;100.00
8627;BME280;4351;51.422;6.794;2023-05-25T06:04:04;102690.38;;;11.39;100.00
8627;BME280;4351;51.422;6.794;2023-05-25T06:10:27;102690.25;;;11.44;100.00
8627;BME280;4351;51.422;6.794;2023-05-25T06:12:55;102691.13;;;11.44;100.00
8627;BME280;4351;51.422;6.794;2023-05-25T06:15:23;102693.53;;;11.54;100.00
8627;BME280;4351;51.422;6.794;2023-05-25T06:17:54;102695.34;;;11.53;100.00
8627;BME280;4351;51.422;6.794;2023-05-25T06:24:03;102698.88;;;11.82;100.00
8627;BME280;4351;51.422;6.794;2023-05-25T06:26:34;102697.69;;;11.64;100.00
8627;BME280;4351;51.422;6.794;2023-05-25T06:29:02;102698.91;;;11.81;100.00
8627;BME280;4351;51.422;6.794;2023-05-25T06:31:31;102699.25;;;11.97;100.00
8627;BME280;4351;51.422;6.794;2023-05-25T06:33:59;102691.31;;;11.92;100.00
8627;BME280;4351;51.422;6.794;2023-05-25T06:36:27;102695.16;;;12.12;100.00
8627;BME280;4351;51.422;6.794;2023-05-25T06:38:55;102690.69;;;12.10;100.00
8627;BME280;4351;51.422;6.794;2023-05-25T06:41:23;102698.97;;;12.32;100.00
8627;BME280;4351;51.422;6.794;2023-05-25T06:43:55;102702.25;;;12.40;100.00
8627;BME280;4351;51.422;6.794;2023-05-25T06:46:56;102700.09;;;12.50;100.00
8627;BME280;4351;51.422;6.794;2023-05-25T06:49:24;102698.16;;;12.54;100.00
8627;BME280;4351;51.422;6.794;2023-05-25T06:51:53;102698.81;;;12.61;100.00
8627;BME280;4351;51.422;6.794;2023-05-25T06:54:23;102706.03;;;12.84;100.00
8627;BME280;4351;51.422;6.794;2023-05-25T06:56:52;102703.81;;;12.72;100.00
8627;BME280;4351;51.422;6.794;2023-05-25T06:59:30;102715.56;;;12.71;100.00
8627;BME280;4351;51.422;6.794;2023-05-25T07:02:00;102712.69;;;12.75;100.00
8627;BME280;4351;51.422;6.794;2023-05-25T07:04:29;102702.09;;;12.69;100.00
8627;BME280;4351;51.422;6.794;2023-05-25T07:06:58;102703.84;;;12.70;100.00
8627;BME280;4351;51.422;6.794;2023-05-25T07:09:42;102698.91;;;12.82;100.00
8627;BME280;4351;51.422;6.794;2023-05-25T07:18:38;102699.91;;;12.79;100.00
8627;BME280;4351;51.422;6.794;2023-05-25T07:21:26;102696.94;;;12.63;100.00
8627;BME280;4351;51.422;6.794;2023-05-25T07:23:53;102702.44;;;12.60;100.00
8627;BME280;4351;51.422;6.794;2023-05-25T07:26:22;102698.31;;;12.73;100.00
8627;BME280;4351;51.422;6.794;2023-05-25T07:28:51;102697.59;;;12.92;100.00
8627;BME280;4351;51.422;6.794;2023-05-25T07:31:19;102701.72;;;13.03;100.00
8627;BME280;4351;51.422;6.794;2023-05-25T07:33:49;102699.47;;;12.90;100.00
8627;BME280;4351;51.422;6.794;2023-05-25T07:36:25;102706.03;;;12.84;100.00
8627;BME280;4351;51.422;6.794;2023-05-25T07:39:18;102708.91;;;12.80;100.00
8627;BME280;4351;51.422;6.794;2023-05-25T07:42:19;102704.16;;;12.86;100.00
8627;BME280;4351;51.422;6.794;2023-05-25T07:44:47;102711.13;;;12.92;100.00
8627;BME280;4351;51.422;6.794;2023-05-25T07:47:15;102706.06;;;13.07;100.00
8627;BME280;4351;51.422;6.794;2023-05-25T07:49:45;102711.00;;;13.19;100.00
8627;BME280;4351;51.422;6.794;2023-05-25T07:52:13;102711.53;;;13.29;100.00
8627;BME280;4351;51.422;6.794;2023-05-25T07:54:42;102700.97;;;13.44;100.00
8627;BME280;4351;51.422;6.794;2023-05-25T07:57:10;102695.13;;;13.55;100.00
8627;BME280;4351;51.422;6.794;2023-05-25T07:59:38;102705.31;;;13.48;100.00
8627;BME280;4351;51.422;6.794;2023-05-25T08:02:06;102705.97;;;13.55;100.00
8627;BME280;4351;51.422;6.794;2023-05-25T08:04:35;102694.47;;;13.71;100.00
8627;BME280;4351;51.422;6.794;2023-05-25T08:07:11;102690.16;;;13.87;100.00
8627;BME280;4351;51.422;6.794;2023-05-25T08:09:39;102694.22;;;13.77;100.00
8627;BME280;4351;51.422;6.794;2023-05-25T08:12:07;102688.97;;;13.93;100.00
8627;BME280;4351;51.422;6.794;2023-05-25T08:14:38;102679.44;;;14.05;100.00
8627;BME280;4351;51.422;6.794;2023-05-25T08:17:12;102677.94;;;13.77;100.00
8627;BME280;4351;51.422;6.794;2023-05-25T08:19:40;102671.69;;;13.75;100.00
8627;BME280;4351;51.422;6.794;2023-05-25T08:22:08;102669.06;;;13.94;100.00
8627;BME280;4351;51.422;6.794;2023-05-25T08:24:37;102669.91;;;13.74;100.00
8627;BME280;4351;51.422;6.794;2023-05-25T08:27:08;102669.06;;;13.94;100.00
8627;BME280;4351;51.422;6.794;2023-05-25T08:29:36;102666.81;;;13.83;100.00
8627;BME280;4351;51.422;6.794;2023-05-25T08:32:04;102663.22;;;13.83;100.00
8627;BME280;4351;51.422;6.794;2023-05-25T08:34:33;102665.25;;;14.19;100.00
8627;BME280;4351;51.422;6.794;2023-05-25T08:37:01;102662.75;;;14.14;100.00
8627;BME280;4351;51.422;6.794;2023-05-25T08:39:28;102659.75;;;14.21;100.00
8627;BME280;4351;51.422;6.794;2023-05-25T08:45:17;102673.97;;;14.26;100.00
8627;BME280;4351;51.422;6.794;2023-05-25T08:48:03;102682.94;;;14.28;100.00
8627;BME280;4351;51.422;6.794;2023-05-25T08:50:37;102673.59;;;14.14;100.00
8627;BME280;4351;51.422;6.794;2023-05-25T08:53:07;102668.97;;;14.17;100.00
8627;BME280;4351;51.422;6.794;2023-05-25T08:55:41;102685.44;;;13.91;100.00
8627;BME280;4351;51.422;6.794;2023-05-25T08:59:07;102677.66;;;14.04;100.00
8627;BME280;4351;51.422;6.794;2023-05-25T09:01:43;102672.78;;;14.12;100.00
8627;BME280;4351;51.422;6.794;2023-05-25T09:04:13;102672.44;;;13.99;100.00
8627;BME280;4351;51.422;6.794;2023-05-25T09:06:47;102674.94;;;14.04;100.00
8627;BME280;4351;51.422;6.794;2023-05-25T09:10:10;102671.25;;;14.26;100.00
8627;BME280;4351;51.422;6.794;2023-05-25T09:12:38;102668.38;;;14.50;100.00
8627;BME280;4351;51.422;6.794;2023-05-25T09:15:07;102654.50;;;14.56;100.00
8627;BME280;4351;51.422;6.794;2023-05-25T09:17:38;102671.44;;;14.42;100.00
8627;BME280;4351;51.422;6.794;2023-05-25T09:20:10;102666.31;;;14.55;100.00
8627;BME280;4351;51.422;6.794;2023-05-25T09:22:39;102669.44;;;14.46;100.00
8627;BME280;4351;51.422;6.794;2023-05-25T09:25:09;102673.94;;;14.47;100.00
8627;BME280;4351;51.422;6.794;2023-05-25T09:27:37;102682.38;;;14.60;100.00
8627;BME280;4351;51.422;6.794;2023-05-25T09:30:06;102696.78;;;14.62;100.00
8627;BME280;4351;51.422;6.794;2023-05-25T09:32:34;102682.00;;;14.68;100.00
8627;BME280;4351;51.422;6.794;2023-05-25T09:35:08;102686.63;;;14.46;100.00
8627;BME280;4351;51.422;6.794;2023-05-25T09:37:36;102682.72;;;14.33;100.00
8627;BME280;4351;51.422;6.794;2023-05-25T09:43:49;102683.34;;;14.78;100.00
8627;BME280;4351;51.422;6.794;2023-05-25T09:46:35;102685.00;;;14.42;100.00
8627;BME280;4351;51.422;6.794;2023-05-25T09:53:31;102684.88;;;14.65;100.00
8627;BME280;4351;51.422;6.794;2023-05-25T09:55:59;102696.13;;;14.76;100.00
8627;BME280;4351;51.422;6.794;2023-05-25T09:58:30;102691.44;;;14.99;100.00
8627;BME280;4351;51.422;6.794;2023-05-25T10:00:58;102687.97;;;15.15;100.00
8627;BME280;4351;51.422;6.794;2023-05-25T10:06:59;102693.50;;;14.94;100.00
8627;BME280;4351;51.422;6.794;2023-05-25T10:09:34;102696.69;;;14.85;100.00
8627;BME280;4351;51.422;6.794;2023-05-25T10:12:16;102705.09;;;14.78;100.00
8627;BME280;4351;51.422;6.794;2023-05-25T10:14:48;102703.72;;;14.89;100.00
8627;BME280;4351;51.422;6.794;2023-05-25T10:17:19;102701.56;;;15.15;100.00
8627;BME280;4351;51.422;6.794;2023-05-25T10:28:36;102705.38;;;14.72;100.00
8627;BME280;4351;51.422;6.794;2023-05-25T10:34:34;102712.75;;;14.49;100.00
8627;BME280;4351;51.422;6.794;2023-05-25T10:37:03;102709.97;;;14.70;100.00
8627;BME280;4351;51.422;6.794;2023-05-25T10:39:32;102717.19;;;14.71;100.00
8627;BME280;4351;51.422;6.794;2023-05-25T10:42:02;102719.59;;;14.58;100.00
8627;BME280;4351;51.422;6.794;2023-05-25T10:45:01;102714.78;;;14.65;100.00
8627;BME280;4351;51.422;6.794;2023-05-25T10:47:34;102724.13;;;14.78;100.00
8627;BME280;4351;51.422;6.794;2023-05-25T10:50:04;102729.28;;;14.64;100.00
8627;BME280;4351;51.422;6.794;2023-05-25T10:52:33;102723.84;;;14.85;100.00
8627;BME280;4351;51.422;6.794;2023-05-25T10:55:02;102716.59;;;14.64;100.00
8627;BME280;4351;51.422;6.794;2023-05-25T10:57:31;102721.22;;;14.62;100.00
8627;BME280;4351;51.422;6.794;2023-05-25T11:00:05;102722.31;;;14.58;100.00
8627;BME280;4351;51.422;6.794;2023-05-25T11:02:47;102709.56;;;14.60;100.00
8627;BME280;4351;51.422;6.794;2023-05-25T11:05:34;102702.38;;;14.78;100.00
8627;BME280;4351;51.422;6.794;2023-05-25T11:08:04;102703.00;;;15.04;100.00
8627;BME280;4351;51.422;6.794;2023-05-25T11:10:41;102697.06;;;14.96;100.00
8627;BME280;4351;51.422;6.794;2023-05-25T11:13:31;102693.16;;;15.39;100.00
8627;BME280;4351;51.422;6.794;2023-05-25T11:16:20;102695.47;;;15.10;100.00
8627;BME280;4351;51.422;6.794;2023-05-25T11:18:52;102690.75;;;14.75;100.00
8627;BME280;4351;51.422;6.794;2023-05-25T11:21:22;102688.38;;;15.07;100.00
8627;BME280;4351;51.422;6.794;2023-05-25T11:24:16;102701.38;;;15.00;100.00
8627;BME280;4351;51.422;6.794;2023-05-25T11:26:55;102695.13;;;14.98;100.00
8627;BME280;4351;51.422;6.794;2023-05-25T11:29:29;102689.03;;;14.93;100.00
8627;BME280;4351;51.422;6.794;2023-05-25T11:31:58;102685.06;;;15.00;100.00
8627;BME280;4351;51.422;6.794;2023-05-25T11:34:27;102686.88;;;14.80;100.00
8627;BME280;4351;51.422;6.794;2023-05-25T11:36:55;102689.84;;;14.95;100.00
8627;BME280;4351;51.422;6.794;2023-05-25T11:39:27;102678.56;;;15.22;100.00
8627;BME280;4351;51.422;6.794;2023-05-25T11:42:00;102680.00;;;14.92;100.00
8627;BME280;4351;51.422;6.794;2023-05-25T11:44:30;102673.31;;;15.00;100.00
8627;BME280;4351;51.422;6.794;2023-05-25T11:47:04;102667.44;;;15.09;100.00
8627;BME280;4351;51.422;6.794;2023-05-25T11:49:38;102671.75;;;15.13;100.00
8627;BME280;4351;51.422;6.794;2023-05-25T11:52:07;102673.13;;;15.22;100.00
8627;BME280;4351;51.422;6.794;2023-05-25T11:54:36;102671.75;;;15.13;100.00
8627;BME280;4351;51.422;6.794;2023-05-25T11:57:13;102664.47;;;15.14;100.00
8627;BME280;4351;51.422;6.794;2023-05-25T11:59:46;102663.88;;;15.26;100.00
8627;BME280;4351;51.422;6.794;2023-05-25T12:02:17;102659.41;;;15.61;100.00
8627;BME280;4351;51.422;6.794;2023-05-25T12:04:52;102649.81;;;15.54;100.00
8627;BME280;4351;51.422;6.794;2023-05-25T12:07:22;102640.94;;;15.50;100.00
8627;BME280;4351;51.422;6.794;2023-05-25T12:09:50;102651.97;;;15.65;100.00
8627;BME280;4351;51.422;6.794;2023-05-25T12:12:18;102637.97;;;15.72;100.00
8627;BME280;4351;51.422;6.794;2023-05-25T12:14:46;102633.22;;;15.94;100.00
8627;BME280;4351;51.422;6.794;2023-05-25T12:17:17;102625.78;;;15.80;100.00
8627;BME280;4351;51.422;6.794;2023-05-25T12:19:45;102631.78;;;15.69;100.00
8627;BME280;4351;51.422;6.794;2023-05-25T12:22:14;102622.09;;;15.98;100.00
8627;BME280;4351;51.422;6.794;2023-05-25T12:24:42;102613.84;;;16.00;100.00
8627;BME280;4351;51.422;6.794;2023-05-25T12:27:17;102611.53;;;15.92;100.00
8627;BME280;4351;51.422;6.794;2023-05-25T12:29:45;102611.44;;;15.94;100.00
8627;BME280;4351;51.422;6.794;2023-05-25T12:32:13;102604.97;;;16.14;100.00
8627;BME280;4351;51.422;6.794;2023-05-25T12:34:43;102614.72;;;16.18;100.00
8627;BME280;4351;51.422;6.794;2023-05-25T12:37:19;102614.06;;;16.13;100.00
8627;BME280;4351;51.422;6.794;2023-05-25T12:39:48;102618.91;;;16.08;100.00
8627;BME280;4351;51.422;6.794;2023-05-25T12:42:19;102623.03;;;16.15;100.00
8627;BME280;4351;51.422;6.794;2023-05-25T12:44:53;102611.47;;;16.28;100.00
8627;BME280;4351;51.422;6.794;2023-05-25T12:47:23;102614.97;;;16.14;100.00
8627;BME280;4351;51.422;6.794;2023-05-25T12:50:10;102611.69;;;16.07;100.00
8627;BME280;4351;51.422;6.794;2023-05-25T12:52:39;102604.97;;;15.96;100.00
8627;BME280;4351;51.422;6.794;2023-05-25T12:55:21;102610.75;;;16.08;100.00
8627;BME280;4351;51.422;6.794;2023-05-25T12:57:51;102607.22;;;16.06;100.00
8627;BME280;4351;51.422;6.794;2023-05-25T13:00:20;102603.38;;;16.10;100.00
8627;BME280;4351;51.422;6.794;2023-05-25T13:02:49;102602.50;;;16.09;100.00
8627;BME280;4351;51.422;6.794;2023-05-25T13:05:20;102599.50;;;16.14;100.00
8627;BME280;4351;51.422;6.794;2023-05-25T13:07:49;102603.38;;;16.10;100.00
8627;BME280;4351;51.422;6.794;2023-05-25T13:10:17;102603.69;;;16.04;100.00
8627;BME280;4351;51.422;6.794;2023-05-25T13:12:46;102594.81;;;16.34;100.00
8627;BME280;4351;51.422;6.794;2023-05-25T13:15:17;102589.69;;;16.28;100.00
8627;BME280;4351;51.422;6.794;2023-05-25T13:17:46;102573.38;;;16.60;100.00
8627;BME280;4351;51.422;6.794;2023-05-25T13:20:17;102570.19;;;16.84;100.00
8627;BME280;4351;51.422;6.794;2023-05-25T13:22:47;102565.06;;;16.94;100.00
8627;BME280;4351;51.422;6.794;2023-05-25T13:25:16;102567.50;;;16.99;100.00
8627;BME280;4351;51.422;6.794;2023-05-25T13:27:45;102557.16;;;16.89;100.00
8627;BME280;4351;51.422;6.794;2023-05-25T13:30:14;102569.38;;;17.15;100.00
8627;BME280;4351;51.422;6.794;2023-05-25T13:32:43;102563.47;;;17.06;100.00
8627;BME280;4351;51.422;6.794;2023-05-25T13:35:14;102559.91;;;17.20;100.00
8627;BME280;4351;51.422;6.794;2023-05-25T13:37:50;102554.31;;;17.07;100.00
8627;BME280;4351;51.422;6.794;2023-05-25T13:40:17;102547.47;;;17.00;100.00
8627;BME280;4351;51.422;6.794;2023-05-25T13:42:45;102537.44;;;17.17;100.00
8627;BME280;4351;51.422;6.794;2023-05-25T13:45:14;102537.78;;;17.10;100.00
8627;BME280;4351;51.422;6.794;2023-05-25T13:47:42;102524.41;;;17.22;100.00
8627;BME280;4351;51.422;6.794;2023-05-25T13:50:12;102528.28;;;17.01;100.00
8627;BME280;4351;51.422;6.794;2023-05-25T13:52:40;102524.19;;;17.25;100.00
8627;BME280;4351;51.422;6.794;2023-05-25T13:55:10;102518.75;;;17.25;100.00
8627;BME280;4351;51.422;6.794;2023-05-25T13:57:39;102528.09;;;17.21;100.00
8627;BME280;4351;51.422;6.794;2023-05-25T14:00:08;102531.25;;;17.13;100.00
8627;BME280;4351;51.422;6.794;2023-05-25T14:02:39;102516.28;;;17.20;100.00
8627;BME280;4351;51.422;6.794;2023-05-25T14:05:08;102517.81;;;17.41;100.00
8627;BME280;4351;51.422;6.794;2023-05-25T14:07:37;102514.59;;;17.49;100.00
8627;BME280;4351;51.422;6.794;2023-05-25T14:10:07;102517.19;;;17.35;100.00
8627;BME280;4351;51.422;6.794;2023-05-25T14:12:40;102526.03;;;17.24;100.00
8627;BME280;4351;51.422;6.794;2023-05-25T14:15:09;102514.69;;;17.32;100.00
8627;BME280;4351;51.422;6.794;2023-05-25T14:17:38;102512.88;;;17.77;100.00
8627;BME280;4351;51.422;6.794;2023-05-25T14:20:06;102491.03;;;17.77;100.00
8627;BME280;4351;51.422;6.794;2023-05-25T14:22:35;102512.28;;;17.57;100.00
8627;BME280;4351;51.422;6.794;2023-05-25T14:25:03;102501.06;;;17.76;100.00